createdAt,value
2023-05-19T00:00:59.461Z,1.20
2023-05-19T00:03:27.080Z,1.27
2023-05-19T00:05:54.718Z,1.17
2023-05-19T00:08:24.693Z,1.15
2023-05-19T00:10:51.905Z,1.25
2023-05-19T00:13:19.447Z,1.15
2023-05-19T00:15:46.906Z,1.25
2023-05-19T00:18:16.560Z,1.17
2023-05-19T00:20:46.047Z,1.40
2023-05-19T00:23:13.089Z,1.20
2023-05-19T00:25:39.992Z,1.15
2023-05-19T00:28:06.896Z,1.50
2023-05-19T00:30:34.009Z,1.10
2023-05-19T00:33:06.534Z,1.38
2023-05-19T00:35:33.633Z,1.50
2023-05-19T00:38:00.533Z,1.67
2023-05-19T00:40:31.952Z,1.50
2023-05-19T00:42:59.125Z,1.23
2023-05-19T00:45:26.043Z,1.40
2023-05-19T00:47:52.953Z,1.15
2023-05-19T00:50:28.324Z,1.48
2023-05-19T00:52:56.486Z,1.42
2023-05-19T00:55:28.478Z,1.23
2023-05-19T00:57:57.028Z,1.25
2023-05-19T01:00:24.570Z,1.42
2023-05-19T01:02:51.751Z,1.40
2023-05-19T01:05:18.858Z,1.63
2023-05-19T01:07:47.184Z,1.10
2023-05-19T01:10:14.117Z,1.20
2023-05-19T01:12:41.304Z,1.27
2023-05-19T01:15:14.190Z,1.30
2023-05-19T01:18:20.749Z,1.50
2023-05-19T01:21:36.480Z,1.40
2023-05-19T01:24:38.063Z,1.27
2023-05-19T01:27:44.704Z,1.20
2023-05-19T01:30:33.599Z,1.20
2023-05-19T01:33:09.379Z,1.20
2023-05-19T01:35:40.956Z,1.40
2023-05-19T01:40:41.590Z,1.05
2023-05-19T01:43:22.569Z,1.45
2023-05-19T01:45:58.779Z,1.38
2023-05-19T01:48:29.981Z,1.35
2023-05-19T01:50:57.425Z,1.42
2023-05-19T01:53:26.966Z,1.45
2023-05-19T01:55:58.629Z,1.60
2023-05-19T01:58:40.504Z,1.70
2023-05-19T02:01:44.437Z,1.20
2023-05-19T02:04:28.879Z,1.30
2023-05-19T02:07:05.454Z,1.27
2023-05-19T02:09:50.421Z,1.38
2023-05-19T02:12:40.468Z,1.40
2023-05-19T02:15:21.948Z,1.70
2023-05-19T02:17:54.495Z,1.30
2023-05-19T02:20:24.724Z,1.55
2023-05-19T02:22:51.854Z,1.20
2023-05-19T02:25:18.842Z,1.38
2023-05-19T02:27:49.182Z,1.40
2023-05-19T02:30:18.373Z,1.40
2023-05-19T02:32:47.537Z,1.42
2023-05-19T02:35:17.087Z,1.33
2023-05-19T02:37:51.656Z,1.40
2023-05-19T02:40:20.947Z,1.60
2023-05-19T02:42:50.045Z,1.17
2023-05-19T02:45:17.260Z,1.42
2023-05-19T02:47:48.957Z,1.25
2023-05-19T02:50:15.979Z,1.30
2023-05-19T02:52:45.338Z,1.30
2023-05-19T02:55:17.012Z,1.10
2023-05-19T02:57:46.332Z,1.35
2023-05-19T03:00:16.171Z,1.40
2023-05-19T03:02:44.070Z,1.25
2023-05-19T03:05:14.255Z,1.30
2023-05-19T03:07:41.567Z,1.42
2023-05-19T03:10:09.735Z,1.38
2023-05-19T03:12:38.722Z,1.25
2023-05-19T03:15:06.918Z,1.58
2023-05-19T03:17:34.361Z,1.60
2023-05-19T03:20:01.779Z,1.45
2023-05-19T03:22:33.929Z,1.35
2023-05-19T03:25:04.263Z,1.33
2023-05-19T03:27:33.622Z,1.45
2023-05-19T03:30:00.519Z,1.33
2023-05-19T03:32:27.631Z,1.63
2023-05-19T03:34:56.806Z,1.48
2023-05-19T03:37:25.941Z,1.60
2023-05-19T03:39:53.031Z,1.20
2023-05-19T03:42:19.940Z,1.30
2023-05-19T03:44:46.963Z,1.90
2023-05-19T03:47:18.366Z,1.35
2023-05-19T03:49:45.632Z,1.50
2023-05-19T03:52:17.385Z,1.42
2023-05-19T03:54:46.692Z,1.60
2023-05-19T03:57:16.868Z,2.00
2023-05-19T03:59:46.051Z,1.38
2023-05-19T04:02:17.562Z,1.35
2023-05-19T04:07:15.758Z,1.77
2023-05-19T04:09:48.660Z,1.52
2023-05-19T04:12:20.288Z,1.73
2023-05-19T04:17:16.368Z,1.42
2023-05-19T04:19:43.292Z,1.63
2023-05-19T04:22:10.196Z,1.73
2023-05-19T04:24:39.226Z,1.60
2023-05-19T04:27:11.800Z,1.90
2023-05-19T04:29:44.180Z,1.63
2023-05-19T04:32:11.649Z,1.92
2023-05-19T04:34:40.420Z,1.85
2023-05-19T04:37:10.307Z,1.77
2023-05-19T04:39:43.398Z,1.80
2023-05-19T04:42:14.911Z,1.60
2023-05-19T04:47:14.995Z,1.42
2023-05-19T04:49:46.030Z,1.75
2023-05-19T04:52:13.093Z,1.45
2023-05-19T04:54:41.736Z,1.50
2023-05-19T04:57:10.465Z,2.03
2023-05-19T04:59:39.904Z,1.70
2023-05-19T05:02:07.031Z,1.77
2023-05-19T05:04:33.992Z,1.80
2023-05-19T05:07:06.049Z,1.83
2023-05-19T05:09:32.961Z,1.63
2023-05-19T05:12:01.202Z,1.50
2023-05-19T05:14:28.783Z,1.70
2023-05-19T05:16:56.860Z,1.77
2023-05-19T05:19:26.760Z,1.42
2023-05-19T05:21:56.359Z,1.70
2023-05-19T05:24:23.754Z,1.88
2023-05-19T05:26:53.733Z,1.50
2023-05-19T05:29:21.265Z,1.92
2023-05-19T05:31:52.981Z,1.77
2023-05-19T05:34:24.633Z,1.90
2023-05-19T05:36:51.559Z,1.70
2023-05-19T05:39:18.451Z,1.98
2023-05-19T05:41:45.408Z,1.60
2023-05-19T05:44:14.719Z,1.83
2023-05-19T05:46:46.667Z,1.90
2023-05-19T05:49:16.418Z,1.67
2023-05-19T05:51:57.944Z,1.80
2023-05-19T05:54:32.205Z,1.90
2023-05-19T05:56:59.485Z,1.58
2023-05-19T05:59:26.433Z,1.80
2023-05-19T06:01:53.496Z,1.83
2023-05-19T06:04:21.117Z,1.70
2023-05-19T06:06:52.668Z,1.80
2023-05-19T06:09:19.555Z,1.58
2023-05-19T06:11:48.758Z,1.63
2023-05-19T06:14:18.584Z,1.42
2023-05-19T06:16:45.766Z,1.20
2023-05-19T06:19:13.222Z,1.65
2023-05-19T06:21:40.181Z,1.52
2023-05-19T06:24:09.799Z,1.50
2023-05-19T06:26:38.958Z,1.45
2023-05-19T06:29:05.885Z,1.80
2023-05-19T06:31:33.753Z,1.67
2023-05-19T06:34:02.907Z,1.50
2023-05-19T06:36:32.357Z,1.40
2023-05-19T06:39:01.340Z,1.98
2023-05-19T06:41:34.611Z,1.48
2023-05-19T06:44:01.531Z,1.40
2023-05-19T06:46:28.497Z,1.33
2023-05-19T06:48:55.483Z,1.85
2023-05-19T06:51:26.931Z,1.38
2023-05-19T06:53:53.844Z,1.10
2023-05-19T06:56:23.271Z,1.67
2023-05-19T06:58:53.189Z,1.58
2023-05-19T07:01:20.166Z,1.60
2023-05-19T07:03:47.234Z,1.75
2023-05-19T07:06:16.825Z,2.25
2023-05-19T07:08:43.897Z,1.50
2023-05-19T07:11:16.011Z,1.73
2023-05-19T07:13:47.674Z,1.42
2023-05-19T07:16:14.595Z,1.80
2023-05-19T07:18:41.637Z,1.48
2023-05-19T07:21:13.458Z,1.70
2023-05-19T07:23:40.596Z,1.45
2023-05-19T07:26:12.004Z,1.45
2023-05-19T07:28:42.568Z,1.30
2023-05-19T07:31:14.404Z,1.43
2023-05-19T07:33:41.448Z,1.73
2023-05-19T07:36:11.045Z,1.75
2023-05-19T07:38:40.529Z,1.45
2023-05-19T07:41:12.096Z,1.35
2023-05-19T07:46:08.636Z,1.30
2023-05-19T07:48:35.720Z,1.40
2023-05-19T07:51:03.023Z,1.42
2023-05-19T07:53:32.165Z,1.63
2023-05-19T07:56:01.308Z,1.67
2023-05-19T07:58:31.249Z,1.40
2023-05-19T08:00:59.588Z,1.30
2023-05-19T08:03:30.587Z,2.25
2023-05-19T08:06:00.130Z,1.40
2023-05-19T08:08:27.144Z,1.60
2023-05-19T08:10:58.866Z,1.55
2023-05-19T08:13:27.976Z,1.48
2023-05-19T08:15:59.654Z,1.40
2023-05-19T08:18:31.434Z,1.30
2023-05-19T08:20:58.630Z,1.80
2023-05-19T08:23:27.843Z,1.48
2023-05-19T08:25:59.536Z,1.60
2023-05-19T08:28:28.746Z,1.52
2023-05-19T08:30:55.891Z,1.33
2023-05-19T08:33:25.879Z,1.70
2023-05-19T08:35:52.928Z,1.52
2023-05-19T08:38:19.845Z,1.83
2023-05-19T08:40:51.559Z,1.50
2023-05-19T08:43:23.238Z,1.73
2023-05-19T08:45:50.417Z,1.25
2023-05-19T08:48:20.951Z,1.50
2023-05-19T08:51:18.728Z,1.37
2023-05-19T08:53:53.898Z,1.40
2023-05-19T08:56:26.641Z,1.52
2023-05-19T08:58:59.742Z,1.42
2023-05-19T09:01:31.871Z,1.55
2023-05-19T09:03:59.067Z,1.75
2023-05-19T09:06:26.694Z,1.23
2023-05-19T09:08:58.372Z,1.60
2023-05-19T09:11:26.101Z,1.38
2023-05-19T09:14:00.178Z,1.50
2023-05-19T09:16:29.375Z,1.48
2023-05-19T09:19:02.486Z,1.30
2023-05-19T09:21:34.036Z,1.20
2023-05-19T09:26:42.816Z,1.20
2023-05-19T09:29:20.054Z,1.45
2023-05-19T09:32:00.571Z,1.48
2023-05-19T09:34:27.939Z,1.40
2023-05-19T09:36:55.024Z,1.40
2023-05-19T09:39:24.037Z,1.60
2023-05-19T09:41:56.178Z,1.30
2023-05-19T09:44:24.552Z,1.42
2023-05-19T09:46:55.001Z,1.30
2023-05-19T09:49:30.157Z,1.40
2023-05-19T09:52:07.353Z,1.42
2023-05-19T09:54:34.752Z,1.38
2023-05-19T09:57:05.227Z,1.40
2023-05-19T09:59:34.132Z,1.42
2023-05-19T10:02:02.536Z,1.17
2023-05-19T10:04:31.122Z,1.83
2023-05-19T10:06:59.648Z,1.17
2023-05-19T10:09:30.078Z,1.50
2023-05-19T10:11:58.458Z,1.42
2023-05-19T10:14:29.943Z,1.80
2023-05-19T10:17:00.846Z,1.45
2023-05-19T10:19:29.224Z,1.33
2023-05-19T10:21:56.977Z,1.27
2023-05-19T10:24:23.920Z,1.67
2023-05-19T10:27:08.833Z,1.58
2023-05-19T10:29:44.596Z,1.63
2023-05-19T10:32:17.594Z,1.50
2023-05-19T10:35:02.410Z,1.35
2023-05-19T10:38:11.564Z,1.60
2023-05-19T10:41:01.033Z,1.30
2023-05-19T10:44:21.766Z,1.65
2023-05-19T10:46:49.463Z,1.40
2023-05-19T10:49:23.433Z,1.60
2023-05-19T10:51:52.998Z,1.60
2023-05-19T10:54:46.214Z,1.63
2023-05-19T10:57:17.673Z,1.70
2023-05-19T11:02:43.925Z,1.60
2023-05-19T11:05:18.259Z,1.55
2023-05-19T11:08:04.584Z,1.95
2023-05-19T11:10:32.144Z,1.70
2023-05-19T11:12:59.802Z,1.90
2023-05-19T11:15:27.986Z,1.90
2023-05-19T11:17:55.395Z,1.67
2023-05-19T11:20:27.596Z,1.65
2023-05-19T11:23:22.295Z,1.70
2023-05-19T11:25:51.421Z,1.48
2023-05-19T11:28:20.970Z,1.60
2023-05-19T11:30:52.286Z,1.88
2023-05-19T11:33:20.903Z,1.63
2023-05-19T11:35:50.482Z,1.83
2023-05-19T11:38:20.923Z,1.70
2023-05-19T11:40:49.938Z,1.40
2023-05-19T11:43:16.877Z,1.48
2023-05-19T11:45:46.939Z,1.67
2023-05-19T11:48:15.958Z,1.88
2023-05-19T11:50:43.989Z,1.80
2023-05-19T11:53:15.464Z,1.88
2023-05-19T11:58:11.670Z,1.48
2023-05-19T12:00:45.862Z,1.80
2023-05-19T12:03:15.358Z,1.83
2023-05-19T12:05:49.234Z,1.70
2023-05-19T12:08:19.886Z,1.77
2023-05-19T12:10:53.037Z,1.80
2023-05-19T12:13:23.418Z,1.50
2023-05-19T12:15:58.149Z,1.80
2023-05-19T12:18:30.841Z,1.83
2023-05-19T12:20:58.070Z,1.80
2023-05-19T12:23:30.667Z,1.90
2023-05-19T12:26:03.317Z,2.45
2023-05-19T12:28:33.682Z,2.03
2023-05-19T12:31:02.772Z,1.95
2023-05-19T12:33:33.521Z,2.20
2023-05-19T12:36:02.579Z,2.40
2023-05-19T12:38:29.587Z,1.95
2023-05-19T12:40:59.781Z,2.20
2023-05-19T12:43:26.754Z,2.00
2023-05-19T12:45:54.111Z,1.90
2023-05-19T12:48:24.261Z,1.92
2023-05-19T12:50:58.779Z,2.20
2023-05-19T12:53:32.291Z,1.80
2023-05-19T12:56:02.298Z,1.95
2023-05-19T12:58:33.915Z,1.90
2023-05-19T13:01:05.528Z,2.05
2023-05-19T13:03:32.724Z,2.38
2023-05-19T13:06:02.273Z,2.30
2023-05-19T13:08:31.955Z,2.28
2023-05-19T13:10:58.867Z,2.75
2023-05-19T13:13:28.107Z,2.30
2023-05-19T13:15:55.506Z,2.30
2023-05-19T13:18:22.495Z,2.15
2023-05-19T13:20:53.086Z,2.40
2023-05-19T13:23:22.534Z,2.53
2023-05-19T13:25:51.530Z,2.58
2023-05-19T13:28:18.570Z,2.25
2023-05-19T13:30:49.570Z,2.70
2023-05-19T13:33:16.902Z,2.60
2023-05-19T13:35:46.387Z,2.75
2023-05-19T13:38:15.663Z,2.70
2023-05-19T13:40:42.652Z,2.58
2023-05-19T13:43:09.688Z,2.35
2023-05-19T13:45:36.972Z,2.20
2023-05-19T13:48:07.372Z,2.42
2023-05-19T13:50:34.579Z,2.63
2023-05-19T13:53:01.516Z,2.53
2023-05-19T13:55:30.773Z,2.03
2023-05-19T13:57:57.811Z,2.47
2023-05-19T14:00:24.940Z,2.63
2023-05-19T14:02:51.977Z,2.40
2023-05-19T14:05:19.064Z,1.92
2023-05-19T14:07:46.604Z,2.05
2023-05-19T14:10:13.563Z,2.13
2023-05-19T14:12:59.539Z,2.35
2023-05-19T14:15:27.732Z,2.30
2023-05-19T14:17:54.768Z,2.20
2023-05-19T14:20:24.088Z,2.30
2023-05-19T14:22:53.182Z,2.55
2023-05-19T14:25:20.112Z,2.25
2023-05-19T14:27:47.129Z,2.65
2023-05-19T14:30:16.413Z,2.45
2023-05-19T14:32:45.449Z,2.60
2023-05-19T14:35:14.580Z,2.35
2023-05-19T14:37:43.762Z,2.40
2023-05-19T14:40:11.504Z,2.55
2023-05-19T14:42:40.927Z,2.72
2023-05-19T14:45:11.168Z,2.65
2023-05-19T14:47:38.117Z,2.55
2023-05-19T14:50:08.848Z,2.70
2023-05-19T14:52:35.765Z,2.80
2023-05-19T14:55:05.646Z,2.50
2023-05-19T14:57:32.527Z,2.85
2023-05-19T14:59:59.406Z,2.85
2023-05-19T15:02:27.624Z,2.58
2023-05-19T15:04:56.452Z,2.53
2023-05-19T15:07:24.597Z,2.33
2023-05-19T15:09:51.596Z,2.50
2023-05-19T15:12:18.612Z,2.70
2023-05-19T15:14:45.819Z,2.40
2023-05-19T15:17:12.957Z,2.05
2023-05-19T15:19:41.961Z,2.10
2023-05-19T15:22:13.691Z,2.30
2023-05-19T15:24:42.801Z,2.58
2023-05-19T15:27:09.922Z,2.53
2023-05-19T15:29:39.149Z,2.65
2023-05-19T15:32:06.935Z,2.03
2023-05-19T15:34:33.968Z,2.25
2023-05-19T15:37:00.921Z,2.13
2023-05-19T15:39:30.114Z,2.17
2023-05-19T15:41:57.049Z,2.42
2023-05-19T15:44:24.044Z,3.08
2023-05-19T15:46:51.019Z,2.53
2023-05-19T15:49:18.016Z,2.65
2023-05-19T15:51:47.656Z,2.65
2023-05-19T15:54:14.571Z,3.15
2023-05-19T15:56:43.858Z,2.80
2023-05-19T15:59:10.779Z,2.60
2023-05-19T16:01:40.061Z,2.50
2023-05-19T16:04:07.146Z,2.55
2023-05-19T16:06:34.171Z,2.85
2023-05-19T16:09:01.107Z,2.45
2023-05-19T16:11:28.179Z,2.58
2023-05-19T16:13:55.088Z,2.58
2023-05-19T16:16:22.069Z,3.00
2023-05-19T16:18:49.029Z,2.92
2023-05-19T16:21:18.342Z,3.17
2023-05-19T16:23:47.639Z,2.72
2023-05-19T16:26:14.641Z,3.00
2023-05-19T16:28:41.532Z,2.63
2023-05-19T16:31:10.751Z,2.95
2023-05-19T16:33:40.025Z,2.80
2023-05-19T16:36:09.163Z,2.92
2023-05-19T16:38:36.096Z,2.80
2023-05-19T16:41:05.166Z,3.15
2023-05-19T16:43:34.332Z,3.03
2023-05-19T16:46:03.434Z,2.58
2023-05-19T16:48:30.621Z,2.92
2023-05-19T16:50:57.642Z,3.15
2023-05-19T16:53:24.523Z,3.17
2023-05-19T16:55:51.561Z,3.28
2023-05-19T16:58:18.417Z,3.00
2023-05-19T17:00:47.941Z,2.95
2023-05-19T17:03:15.066Z,3.33
2023-05-19T17:05:44.591Z,3.53
2023-05-19T17:08:12.695Z,3.25
2023-05-19T17:10:39.658Z,3.42
2023-05-19T17:13:06.669Z,3.22
2023-05-19T17:15:34.715Z,3.35
2023-05-19T17:18:01.710Z,3.28
2023-05-19T17:20:31.567Z,3.15
2023-05-19T17:22:58.644Z,3.35
2023-05-19T17:25:25.901Z,2.85
2023-05-19T17:27:52.865Z,3.22
2023-05-19T17:30:22.207Z,3.17
2023-05-19T17:32:49.415Z,3.58
2023-05-19T17:35:21.219Z,2.67
2023-05-19T17:40:14.983Z,2.53
2023-05-19T17:42:44.238Z,3.00
2023-05-19T17:45:12.456Z,3.30
2023-05-19T17:47:39.474Z,3.00
2023-05-19T17:50:07.121Z,3.08
2023-05-19T17:52:34.714Z,3.28
2023-05-19T17:55:04.465Z,3.08
2023-05-19T17:57:33.430Z,3.13
2023-05-19T18:00:01.307Z,3.33
2023-05-19T18:02:28.774Z,3.38
2023-05-19T18:04:59.321Z,3.55
2023-05-19T18:07:29.712Z,3.00
2023-05-19T18:09:58.028Z,3.15
2023-05-19T18:12:29.685Z,3.08
2023-05-19T18:14:56.605Z,3.03
2023-05-19T18:17:23.749Z,3.22
2023-05-19T18:19:50.679Z,3.50
2023-05-19T18:22:17.760Z,3.17
2023-05-19T18:24:44.761Z,3.17
2023-05-19T18:27:11.887Z,3.33
2023-05-19T18:29:38.998Z,3.25
2023-05-19T18:32:06.794Z,3.17
2023-05-19T18:34:33.739Z,3.42
2023-05-19T18:37:00.711Z,3.20
2023-05-19T18:39:29.339Z,3.60
2023-05-19T18:41:56.417Z,3.00
2023-05-19T18:44:25.934Z,3.72
2023-05-19T18:46:53.599Z,3.38
2023-05-19T18:49:20.934Z,3.65
2023-05-19T18:51:48.549Z,3.42
2023-05-19T18:54:15.481Z,3.33
2023-05-19T18:56:44.696Z,3.42
2023-05-19T18:59:11.673Z,3.20
2023-05-19T19:01:38.841Z,3.70
2023-05-19T19:04:05.937Z,3.40
2023-05-19T19:06:32.908Z,3.25
2023-05-19T19:09:02.158Z,3.90
2023-05-19T19:11:31.357Z,3.28
2023-05-19T19:13:58.257Z,3.78
2023-05-19T19:16:27.467Z,3.60
2023-05-19T19:18:54.595Z,3.35
2023-05-19T19:21:24.706Z,3.63
2023-05-19T19:23:56.783Z,3.30
2023-05-19T19:26:28.916Z,3.17
2023-05-19T19:28:56.644Z,3.30
2023-05-19T19:31:28.761Z,3.15
2023-05-19T19:34:02.936Z,3.22
2023-05-19T19:36:32.500Z,3.25
2023-05-19T19:38:59.627Z,3.45
2023-05-19T19:41:29.801Z,3.25
2023-05-19T19:43:56.734Z,3.40
2023-05-19T19:46:23.676Z,3.40
2023-05-19T19:48:53.025Z,3.20
2023-05-19T19:51:22.070Z,3.42
2023-05-19T19:53:49.064Z,2.92
2023-05-19T19:56:16.133Z,3.00
2023-05-19T19:58:43.025Z,3.03
2023-05-19T20:01:10.640Z,3.13
2023-05-19T20:03:37.734Z,3.00
2023-05-19T20:06:07.776Z,2.78
2023-05-19T20:08:34.739Z,2.97
2023-05-19T20:11:03.939Z,3.35
2023-05-19T20:13:32.812Z,3.15
2023-05-19T20:15:59.937Z,3.55
2023-05-19T20:18:27.835Z,3.03
2023-05-19T20:20:54.749Z,3.15
2023-05-19T20:23:21.985Z,3.30
2023-05-19T20:26:10.231Z,4.18
2023-05-19T20:28:37.575Z,3.67
2023-05-19T20:31:09.095Z,3.70
2023-05-19T20:33:40.639Z,4.55
2023-05-19T20:36:07.833Z,3.83
2023-05-19T20:38:37.088Z,3.97
2023-05-19T20:41:06.444Z,3.72
2023-05-19T20:43:36.390Z,3.70
2023-05-19T20:46:04.236Z,3.00
2023-05-19T20:48:31.602Z,3.08
2023-05-19T20:51:01.365Z,2.75
2023-05-19T20:53:28.334Z,2.90
2023-05-19T20:55:56.439Z,2.83
2023-05-19T20:58:26.490Z,2.70
2023-05-19T21:00:57.583Z,3.05
2023-05-19T21:03:28.475Z,3.10
2023-05-19T21:05:55.939Z,2.70
2023-05-19T21:08:25.758Z,2.90
2023-05-19T21:10:52.710Z,2.60
2023-05-19T21:13:19.796Z,2.80
2023-05-19T21:15:49.344Z,3.53
2023-05-19T21:18:16.311Z,3.20
2023-05-19T21:20:43.237Z,2.90
2023-05-19T21:23:10.173Z,3.08
2023-05-19T21:25:37.098Z,3.42
2023-05-19T21:28:04.133Z,3.03
2023-05-19T21:30:31.274Z,3.03
2023-05-19T21:32:58.635Z,3.10
2023-05-19T21:35:26.022Z,2.63
2023-05-19T21:37:52.975Z,2.90
2023-05-19T21:40:22.291Z,3.13
2023-05-19T21:42:51.601Z,2.88
2023-05-19T21:45:23.457Z,2.92
2023-05-19T21:47:50.320Z,2.75
2023-05-19T21:50:19.872Z,2.38
2023-05-19T21:52:46.744Z,2.72
2023-05-19T21:55:15.996Z,2.33
2023-05-19T21:57:47.813Z,2.40
2023-05-19T22:00:17.497Z,2.55
2023-05-19T22:02:46.754Z,2.72
2023-05-19T22:05:13.759Z,2.67
2023-05-19T22:07:40.971Z,2.60
2023-05-19T22:10:11.748Z,2.58
2023-05-19T22:12:41.066Z,2.72
2023-05-19T22:15:08.839Z,2.67
2023-05-19T22:17:35.797Z,3.00
2023-05-19T22:20:02.792Z,3.03
2023-05-19T22:22:29.725Z,2.80
2023-05-19T22:24:56.720Z,2.60
2023-05-19T22:27:23.649Z,3.40
2023-05-19T22:29:50.709Z,2.85
2023-05-19T22:32:19.449Z,2.95
2023-05-19T22:34:46.652Z,2.92
2023-05-19T22:37:13.693Z,2.70
2023-05-19T22:39:40.666Z,2.97
2023-05-19T22:42:10.138Z,2.60
2023-05-19T22:44:37.082Z,2.83
2023-05-19T22:47:04.161Z,2.67
2023-05-19T22:49:31.139Z,3.40
2023-05-19T22:51:58.042Z,3.10
2023-05-19T22:54:27.247Z,2.70
2023-05-19T22:56:56.683Z,2.53
2023-05-19T22:59:23.594Z,2.67
2023-05-19T23:01:50.700Z,2.65
2023-05-19T23:04:17.572Z,2.80
2023-05-19T23:06:44.537Z,2.50
2023-05-19T23:09:11.430Z,2.80
2023-05-19T23:11:38.318Z,2.47
2023-05-19T23:14:05.643Z,2.55
2023-05-19T23:16:32.616Z,3.13
2023-05-19T23:19:02.358Z,2.55
2023-05-19T23:21:31.630Z,2.88
2023-05-19T23:24:01.239Z,2.65
2023-05-19T23:26:28.154Z,2.55
2023-05-19T23:28:57.377Z,2.63
2023-05-19T23:31:24.550Z,2.45
2023-05-19T23:33:51.545Z,2.88
2023-05-19T23:36:19.227Z,2.90
2023-05-19T23:38:46.134Z,2.75
2023-05-19T23:41:13.449Z,2.75
2023-05-19T23:43:40.396Z,3.08
2023-05-19T23:46:09.989Z,2.72
2023-05-19T23:48:36.958Z,2.63
2023-05-19T23:51:04.034Z,3.47
2023-05-19T23:53:33.551Z,2.55
2023-05-19T23:56:00.466Z,2.25
2023-05-19T23:58:27.423Z,2.30
